createdAt,value
2018-05-13T00:02:21.113Z,10.80
2018-05-13T00:04:47.804Z,9.93
2018-05-13T00:07:14.239Z,11.20
2018-05-13T00:09:40.744Z,10.93
2018-05-13T00:12:07.879Z,11.27
2018-05-13T00:14:34.484Z,10.10
2018-05-13T00:17:00.899Z,12.20
2018-05-13T00:19:27.480Z,11.43
2018-05-13T00:21:53.913Z,12.00
2018-05-13T00:24:20.332Z,11.33
2018-05-13T00:26:46.744Z,13.80
2018-05-13T00:29:13.160Z,14.30
2018-05-13T00:31:39.596Z,13.73
2018-05-13T00:34:05.993Z,14.20
2018-05-13T00:36:33.204Z,15.43
2018-05-13T00:38:59.604Z,15.90
2018-05-13T00:41:26.049Z,14.27
2018-05-13T00:43:53.068Z,14.00
2018-05-13T00:46:19.575Z,13.47
2018-05-13T00:48:45.960Z,13.60
2018-05-13T00:51:12.473Z,13.80
2018-05-13T00:53:38.933Z,11.40
2018-05-13T00:56:05.406Z,12.50
2018-05-13T00:58:31.813Z,12.73
2018-05-13T01:00:58.334Z,13.83
2018-05-13T01:03:24.868Z,13.67
2018-05-13T01:05:51.327Z,15.00
2018-05-13T01:08:17.864Z,15.17
2018-05-13T01:10:45.625Z,14.30
2018-05-13T01:13:12.136Z,14.57
2018-05-13T01:15:38.577Z,15.30
2018-05-13T01:18:04.974Z,14.93
2018-05-13T01:20:31.557Z,15.53
2018-05-13T01:22:58.031Z,15.30
2018-05-13T01:25:25.183Z,15.90
2018-05-13T01:27:51.732Z,15.07
2018-05-13T01:30:18.166Z,15.20
2018-05-13T01:32:45.391Z,15.70
2018-05-13T01:35:12.570Z,16.00
2018-05-13T01:37:39.292Z,16.43
2018-05-13T01:40:05.754Z,16.40
2018-05-13T01:42:32.205Z,16.33
2018-05-13T01:44:58.657Z,15.00
2018-05-13T01:47:25.024Z,15.77
2018-05-13T01:49:51.429Z,18.33
2018-05-13T01:52:18.649Z,14.97
2018-05-13T01:54:45.091Z,15.03
2018-05-13T01:57:11.535Z,15.67
2018-05-13T01:59:37.942Z,15.83
2018-05-13T02:02:04.445Z,15.07
2018-05-13T02:04:30.825Z,14.07
2018-05-13T02:06:57.253Z,14.97
2018-05-13T02:09:23.627Z,16.00
2018-05-13T02:11:50.128Z,14.97
2018-05-13T02:14:16.529Z,14.93
2018-05-13T02:16:43.672Z,14.60
2018-05-13T02:19:10.048Z,13.80
2018-05-13T02:21:37.268Z,14.30
2018-05-13T02:24:03.744Z,14.70
2018-05-13T02:26:30.857Z,14.43
2018-05-13T02:28:57.254Z,14.60
2018-05-13T02:31:23.693Z,15.33
2018-05-13T02:33:50.109Z,14.60
2018-05-13T02:36:16.541Z,13.97
2018-05-13T02:38:42.990Z,14.33
2018-05-13T02:41:09.401Z,13.83
2018-05-13T02:43:35.845Z,13.67
2018-05-13T02:46:02.253Z,15.37
2018-05-13T02:48:29.415Z,13.60
2018-05-13T02:50:55.828Z,14.80
2018-05-13T02:53:23.042Z,15.03
2018-05-13T02:55:49.462Z,14.00
2018-05-13T02:58:16.012Z,15.63
2018-05-13T03:00:42.406Z,14.43
2018-05-13T03:03:08.882Z,14.03
2018-05-13T03:05:35.281Z,14.13
2018-05-13T03:08:01.801Z,13.27
2018-05-13T03:10:28.219Z,14.20
2018-05-13T03:12:54.692Z,15.17
2018-05-13T03:15:21.080Z,15.53
2018-05-13T03:17:48.259Z,17.00
2018-05-13T03:20:14.724Z,15.93
2018-05-13T03:22:41.135Z,14.20
2018-05-13T03:25:07.508Z,16.53
2018-05-13T03:27:33.943Z,16.20
2018-05-13T03:30:01.052Z,16.50
2018-05-13T03:32:27.564Z,16.50
2018-05-13T03:34:53.944Z,15.17
2018-05-13T03:37:20.328Z,16.53
2018-05-13T03:39:46.750Z,17.07
2018-05-13T03:42:13.130Z,18.30
2018-05-13T03:44:39.576Z,17.87
2018-05-13T03:47:05.956Z,18.63
2018-05-13T03:49:32.436Z,18.43
2018-05-13T03:51:58.811Z,16.57
2018-05-13T03:54:25.325Z,19.60
2018-05-13T03:56:52.461Z,18.50
2018-05-13T03:59:19.756Z,19.23
2018-05-13T04:01:46.161Z,18.37
2018-05-13T04:04:13.274Z,18.43
2018-05-13T04:06:39.813Z,18.70
2018-05-13T04:09:18.589Z,19.57
2018-05-13T04:11:57.189Z,17.90
2018-05-13T04:14:35.844Z,17.77
2018-05-13T04:17:09.312Z,17.80
2018-05-13T04:19:35.735Z,17.30
2018-05-13T04:22:02.233Z,18.40
2018-05-13T04:24:28.619Z,17.20
2018-05-13T04:26:55.108Z,17.10
2018-05-13T04:29:21.479Z,17.93
2018-05-13T04:31:48.136Z,17.63
2018-05-13T04:34:14.580Z,16.70
2018-05-13T04:36:40.987Z,17.00
2018-05-13T04:39:07.397Z,17.63
2018-05-13T04:41:33.825Z,17.23
2018-05-13T04:44:01.024Z,18.10
2018-05-13T04:46:27.421Z,17.47
2018-05-13T04:48:53.954Z,16.93
2018-05-13T04:51:20.320Z,16.57
2018-05-13T04:53:46.868Z,17.20
2018-05-13T04:56:13.240Z,17.17
2018-05-13T04:58:40.389Z,16.93
2018-05-13T05:01:07.522Z,16.60
2018-05-13T05:03:34.728Z,17.77
2018-05-13T05:06:01.160Z,17.60
2018-05-13T05:08:27.626Z,17.80
2018-05-13T05:10:54.067Z,17.27
2018-05-13T05:13:20.489Z,16.30
2018-05-13T05:15:46.921Z,16.77
2018-05-13T05:18:13.409Z,17.70
2018-05-13T05:20:39.872Z,16.67
2018-05-13T05:23:06.362Z,16.93
2018-05-13T05:25:32.783Z,18.33
2018-05-13T05:27:59.293Z,18.33
2018-05-13T05:30:25.653Z,16.50
2018-05-13T05:32:52.150Z,17.07
2018-05-13T05:35:18.523Z,16.80
2018-05-13T05:37:44.995Z,16.87
2018-05-13T05:40:11.371Z,16.10
2018-05-13T05:42:38.600Z,15.60
2018-05-13T05:45:05.218Z,16.33
2018-05-13T05:47:31.635Z,14.63
2018-05-13T05:49:58.057Z,16.27
2018-05-13T05:52:24.510Z,16.00
2018-05-13T05:54:51.043Z,17.13
2018-05-13T05:57:17.442Z,16.53
2018-05-13T05:59:43.913Z,15.63
2018-05-13T06:02:10.312Z,16.23
2018-05-13T06:04:36.846Z,16.23
2018-05-13T06:07:03.266Z,17.50
2018-05-13T06:09:29.799Z,17.77
2018-05-13T06:11:56.181Z,16.63
2018-05-13T06:14:22.669Z,16.53
2018-05-13T06:16:49.157Z,16.40
2018-05-13T06:19:15.592Z,16.37
2018-05-13T06:21:41.980Z,16.30
2018-05-13T06:24:08.384Z,16.77
2018-05-13T06:26:35.711Z,17.27
2018-05-13T06:29:03.043Z,17.77
2018-05-13T06:31:29.505Z,16.87
2018-05-13T06:33:55.911Z,16.37
2018-05-13T06:36:22.323Z,17.10
2018-05-13T06:38:48.806Z,16.73
2018-05-13T06:41:15.968Z,17.27
2018-05-13T06:43:43.135Z,18.33
2018-05-13T06:46:09.620Z,16.33
2018-05-13T06:48:36.031Z,18.87
2018-05-13T06:51:02.470Z,18.80
2018-05-13T06:53:28.896Z,17.00
2018-05-13T06:55:55.376Z,17.00
2018-05-13T06:58:22.603Z,16.80
2018-05-13T07:00:49.025Z,17.10
2018-05-13T07:03:15.460Z,16.87
2018-05-13T07:05:41.849Z,15.50
2018-05-13T07:08:08.299Z,15.23
2018-05-13T07:10:34.768Z,14.07
2018-05-13T07:13:01.354Z,15.60
2018-05-13T07:15:28.594Z,16.27
2018-05-13T07:17:55.005Z,14.23
2018-05-13T07:20:22.196Z,15.33
2018-05-13T07:22:48.665Z,15.77
2018-05-13T07:25:15.115Z,15.67
2018-05-13T07:27:42.309Z,16.03
2018-05-13T07:30:08.748Z,16.97
2018-05-13T07:32:35.162Z,16.57
2018-05-13T07:35:01.637Z,18.13
2018-05-13T07:37:28.116Z,18.03
2018-05-13T07:39:54.542Z,16.30
2018-05-13T07:42:21.668Z,16.90
2018-05-13T07:44:48.107Z,15.77
2018-05-13T07:47:15.355Z,17.57
2018-05-13T07:49:41.780Z,15.23
2018-05-13T07:52:08.323Z,15.97
2018-05-13T07:54:34.727Z,15.80
2018-05-13T07:57:01.911Z,14.47
2018-05-13T07:59:29.062Z,15.73
2018-05-13T08:01:56.227Z,17.13
2018-05-13T08:04:23.401Z,17.53
2018-05-13T08:06:49.835Z,14.50
2018-05-13T08:09:16.361Z,16.10
2018-05-13T08:11:42.817Z,15.50
2018-05-13T08:14:09.357Z,16.73
2018-05-13T08:16:36.473Z,15.60
2018-05-13T08:19:02.921Z,17.10
2018-05-13T08:21:29.350Z,17.20
2018-05-13T08:23:55.783Z,17.10
2018-05-13T08:26:22.255Z,16.07
2018-05-13T08:28:48.721Z,16.27
2018-05-13T08:31:15.888Z,18.17
2018-05-13T08:33:42.288Z,17.13
2018-05-13T08:36:09.472Z,16.50
2018-05-13T08:38:35.913Z,16.70
2018-05-13T08:41:02.344Z,16.87
2018-05-13T08:43:28.817Z,17.37
2018-05-13T08:45:55.237Z,16.23
2018-05-13T08:48:21.941Z,16.33
2018-05-13T08:50:49.125Z,15.63
2018-05-13T08:53:15.560Z,15.87
2018-05-13T08:55:42.017Z,15.27
2018-05-13T08:58:09.247Z,15.30
2018-05-13T09:00:35.685Z,14.00
2018-05-13T09:03:02.126Z,14.17
2018-05-13T09:05:28.521Z,11.83
2018-05-13T09:07:54.986Z,12.37
2018-05-13T09:10:21.445Z,12.60
2018-05-13T09:12:48.593Z,12.13
2018-05-13T09:15:15.847Z,10.97
2018-05-13T09:17:42.986Z,12.80
2018-05-13T09:20:10.245Z,14.40
2018-05-13T09:22:37.559Z,11.33
2018-05-13T09:25:03.972Z,11.60
2018-05-13T09:27:30.438Z,11.73
2018-05-13T09:29:56.889Z,13.47
2018-05-13T09:32:24.035Z,14.33
2018-05-13T09:34:51.287Z,12.57
2018-05-13T09:37:18.471Z,11.63
2018-05-13T09:39:44.924Z,13.30
2018-05-13T09:42:11.331Z,14.30
2018-05-13T09:44:37.763Z,13.60
2018-05-13T09:47:04.189Z,14.47
2018-05-13T09:49:30.590Z,14.00
2018-05-13T09:51:57.092Z,13.03
2018-05-13T09:54:23.509Z,13.80
2018-05-13T09:56:50.066Z,12.80
2018-05-13T09:59:16.508Z,13.10
2018-05-13T10:01:43.085Z,12.97
2018-05-13T10:04:09.471Z,13.97
2018-05-13T10:06:36.074Z,12.60
2018-05-13T10:09:02.467Z,14.50
2018-05-13T10:11:29.646Z,15.73
2018-05-13T10:13:56.127Z,13.67
2018-05-13T10:16:22.563Z,14.37
2018-05-13T10:18:49.025Z,14.50
2018-05-13T10:21:16.264Z,13.47
2018-05-13T10:23:43.492Z,14.23
2018-05-13T10:26:09.925Z,15.17
2018-05-13T10:28:36.335Z,14.77
2018-05-13T10:31:02.752Z,15.83
2018-05-13T10:33:29.183Z,16.37
2018-05-13T10:35:55.639Z,14.00
2018-05-13T10:38:22.186Z,15.03
2018-05-13T10:40:48.596Z,15.13
2018-05-13T10:43:15.002Z,14.07
2018-05-13T10:45:41.507Z,14.03
2018-05-13T10:48:08.670Z,16.30
2018-05-13T10:50:35.908Z,14.23
2018-05-13T10:53:03.061Z,14.03
2018-05-13T10:55:30.212Z,12.43
2018-05-13T10:57:57.356Z,12.60
2018-05-13T11:00:24.780Z,16.07
2018-05-13T11:02:51.265Z,14.90
2018-05-13T11:05:17.716Z,14.40
2018-05-13T11:07:44.168Z,14.00
2018-05-13T11:10:10.672Z,13.33
2018-05-13T11:12:37.160Z,13.57
2018-05-13T11:15:03.657Z,12.97
2018-05-13T11:17:30.076Z,13.30
2018-05-13T11:19:56.553Z,11.53
2018-05-13T11:22:23.001Z,13.60
2018-05-13T11:24:49.377Z,13.87
2018-05-13T11:27:15.938Z,13.43
2018-05-13T11:29:42.388Z,12.30
2018-05-13T11:32:08.833Z,13.93
2018-05-13T11:34:36.291Z,14.77
2018-05-13T11:37:03.574Z,12.90
2018-05-13T11:39:30.028Z,11.80
2018-05-13T11:41:56.488Z,13.70
2018-05-13T11:44:22.909Z,12.40
2018-05-13T11:46:49.439Z,14.97
2018-05-13T11:49:16.599Z,13.17
2018-05-13T11:51:43.065Z,13.13
2018-05-13T11:54:10.206Z,13.07
2018-05-13T11:56:36.602Z,12.27
2018-05-13T11:59:03.080Z,14.80
2018-05-13T12:01:30.246Z,14.83
2018-05-13T12:03:56.706Z,14.07
2018-05-13T12:06:23.212Z,15.67
2018-05-13T12:08:49.681Z,14.20
2018-05-13T12:11:16.113Z,13.33
2018-05-13T12:13:42.528Z,14.67
2018-05-13T12:16:08.949Z,13.93
2018-05-13T12:18:35.326Z,14.67
2018-05-13T12:21:01.783Z,14.57
2018-05-13T12:23:28.941Z,14.00
2018-05-13T12:25:56.147Z,13.57
2018-05-13T12:28:22.577Z,15.07
2018-05-13T12:30:49.040Z,14.80
2018-05-13T12:33:15.424Z,14.13
2018-05-13T12:35:41.875Z,13.70
2018-05-13T12:38:08.316Z,15.47
2018-05-13T12:40:34.744Z,15.23
2018-05-13T12:43:01.179Z,15.43
2018-05-13T12:45:27.596Z,14.67
2018-05-13T12:47:54.044Z,15.83
2018-05-13T12:50:27.647Z,15.87
2018-05-13T12:52:54.104Z,16.23
2018-05-13T12:55:20.523Z,16.53
2018-05-13T12:57:46.972Z,16.90
2018-05-13T13:00:14.144Z,16.70
2018-05-13T13:02:41.449Z,15.83
2018-05-13T13:05:07.856Z,17.90
2018-05-13T13:07:34.334Z,16.87
2018-05-13T13:10:00.761Z,18.97
2018-05-13T13:12:27.220Z,19.53
2018-05-13T13:14:54.433Z,16.70
2018-05-13T13:17:20.851Z,15.50
2018-05-13T13:19:47.333Z,17.70
2018-05-13T13:22:14.513Z,14.67
2018-05-13T13:24:40.919Z,18.57
2018-05-13T13:27:08.082Z,14.77
2018-05-13T13:29:34.584Z,17.63
2018-05-13T13:32:01.727Z,17.27
2018-05-13T13:37:24.913Z,18.60
2018-05-13T13:39:52.140Z,18.83
2018-05-13T13:42:18.567Z,18.70
2018-05-13T13:44:45.062Z,18.23
2018-05-13T13:47:11.505Z,18.27
2018-05-13T13:49:37.933Z,18.90
2018-05-13T13:52:04.457Z,18.33
2018-05-13T13:54:30.884Z,19.27
2018-05-13T13:56:57.332Z,17.77
2018-05-13T13:59:23.761Z,15.70
2018-05-13T14:01:50.193Z,18.00
2018-05-13T14:04:16.609Z,17.30
2018-05-13T14:06:43.056Z,18.40
2018-05-13T14:09:09.508Z,16.93
2018-05-13T14:11:36.109Z,19.03
2018-05-13T14:14:02.768Z,19.60
2018-05-13T14:16:29.241Z,19.90
2018-05-13T14:18:55.692Z,18.93
2018-05-13T14:21:22.917Z,17.13
2018-05-13T14:23:49.546Z,20.60
2018-05-13T14:26:15.872Z,20.03
2018-05-13T14:28:42.427Z,21.37
2018-05-13T14:31:08.838Z,18.57
2018-05-13T14:33:35.349Z,18.90
2018-05-13T14:36:01.788Z,18.20
2018-05-13T14:38:28.286Z,19.43
2018-05-13T14:40:55.637Z,20.20
2018-05-13T14:43:22.048Z,19.03
2018-05-13T14:45:48.552Z,20.80
2018-05-13T14:48:15.028Z,20.00
2018-05-13T14:50:42.269Z,18.47
2018-05-13T14:53:08.708Z,20.50
2018-05-13T14:55:35.895Z,19.40
2018-05-13T14:58:02.413Z,18.50
2018-05-13T15:00:29.680Z,19.07
2018-05-13T15:02:56.144Z,18.40
2018-05-13T15:05:22.633Z,17.17
2018-05-13T15:07:49.155Z,17.73
2018-05-13T15:10:16.433Z,18.23
2018-05-13T15:12:42.882Z,17.97
2018-05-13T15:15:09.397Z,20.13
2018-05-13T15:17:35.814Z,19.63
2018-05-13T15:20:03.093Z,18.37
2018-05-13T15:22:33.547Z,19.80
2018-05-13T15:25:00.787Z,19.20
2018-05-13T15:27:34.268Z,19.97
2018-05-13T15:30:00.672Z,18.10
2018-05-13T15:32:27.172Z,18.43
2018-05-13T15:34:53.648Z,18.13
2018-05-13T15:37:20.146Z,19.47
2018-05-13T15:39:46.629Z,18.77
2018-05-13T15:42:13.040Z,20.10
2018-05-13T15:44:40.243Z,18.70
2018-05-13T15:47:06.678Z,20.83
2018-05-13T15:49:33.169Z,19.20
2018-05-13T15:51:59.609Z,17.00
2018-05-13T15:54:26.053Z,20.73
2018-05-13T15:56:52.506Z,22.07
2018-05-13T15:59:18.973Z,21.83
2018-05-13T16:01:46.136Z,22.77
2018-05-13T16:04:13.406Z,25.00
2018-05-13T16:06:39.955Z,25.70
2018-05-13T16:09:07.169Z,26.47
2018-05-13T16:11:34.341Z,26.50
2018-05-13T16:14:03.961Z,24.10
2018-05-13T16:16:30.438Z,26.87
2018-05-13T16:18:56.977Z,26.27
2018-05-13T16:21:23.377Z,25.93
2018-05-13T16:23:49.857Z,24.93
2018-05-13T16:26:17.049Z,25.13
2018-05-13T16:28:43.560Z,29.20
2018-05-13T16:31:10.041Z,25.43
2018-05-13T16:33:36.512Z,29.63
2018-05-13T16:36:04.819Z,29.33
2018-05-13T16:38:31.440Z,27.70
2018-05-13T16:40:59.686Z,29.13
2018-05-13T16:43:26.925Z,31.73
2018-05-13T16:45:55.657Z,34.90
2018-05-13T16:48:22.101Z,34.67
2018-05-13T16:50:48.627Z,34.27
2018-05-13T16:53:15.134Z,37.70
2018-05-13T16:55:41.659Z,39.30
2018-05-13T16:58:08.914Z,24.27
2018-05-13T17:00:36.111Z,31.40
2018-05-13T17:03:02.592Z,34.20
2018-05-13T17:05:29.810Z,30.90
2018-05-13T17:07:56.400Z,26.03
2018-05-13T17:10:22.870Z,34.40
2018-05-13T17:12:49.765Z,32.27
2018-05-13T17:15:17.023Z,35.47
2018-05-13T17:17:44.268Z,35.37
2018-05-13T17:20:11.488Z,32.73
2018-05-13T17:22:37.938Z,36.83
2018-05-13T17:25:04.473Z,34.20
2018-05-13T17:27:30.916Z,33.77
2018-05-13T17:29:58.134Z,26.97
2018-05-13T17:32:24.706Z,37.03
2018-05-13T17:34:52.010Z,38.90
2018-05-13T17:37:18.524Z,41.50
2018-05-13T17:39:45.003Z,40.10
2018-05-13T17:42:11.654Z,40.20
2018-05-13T17:44:38.931Z,42.53
2018-05-13T17:47:05.553Z,44.47
2018-05-13T17:49:32.785Z,46.17
2018-05-13T17:51:59.278Z,44.73
2018-05-13T17:54:25.742Z,44.07
2018-05-13T17:56:52.224Z,44.97
2018-05-13T17:59:18.723Z,45.07
2018-05-13T18:01:45.204Z,46.07
2018-05-13T18:04:11.773Z,48.17
2018-05-13T18:06:38.285Z,48.23
2018-05-13T18:09:04.932Z,48.23
2018-05-13T18:11:31.469Z,47.53
2018-05-13T18:13:58.257Z,48.57
2018-05-13T18:16:25.465Z,49.50
2018-05-13T18:18:51.943Z,52.87
2018-05-13T18:21:19.301Z,50.60
2018-05-13T18:23:45.916Z,53.37
2018-05-13T18:26:12.584Z,49.50
2018-05-13T18:28:39.072Z,56.00
2018-05-13T18:31:07.190Z,56.10
2018-05-13T18:33:34.418Z,50.33
2018-05-13T18:36:00.983Z,48.77
2018-05-13T18:38:27.458Z,47.60
2018-05-13T18:40:53.995Z,51.47
2018-05-13T18:43:21.262Z,50.27
2018-05-13T18:48:12.392Z,49.90
2018-05-13T18:50:40.639Z,36.97
2018-05-13T18:53:07.144Z,44.90
2018-05-13T18:55:33.717Z,43.20
2018-05-13T18:58:00.251Z,42.93
2018-05-13T19:00:26.843Z,41.30
2018-05-13T19:02:53.414Z,50.17
2018-05-13T19:05:19.985Z,53.50
2018-05-13T19:07:47.256Z,50.73
2018-05-13T19:10:13.800Z,39.00
2018-05-13T19:12:40.617Z,38.83
2018-05-13T19:15:07.932Z,35.47
2018-05-13T19:17:34.565Z,37.67
2018-05-13T19:20:01.150Z,39.37
2018-05-13T19:22:27.708Z,31.87
2018-05-13T19:24:54.409Z,36.93
2018-05-13T19:27:21.673Z,30.27
2018-05-13T19:29:48.397Z,26.93
2018-05-13T19:32:15.689Z,22.00
2018-05-13T19:34:42.173Z,25.47
2018-05-13T19:37:08.709Z,26.87
2018-05-13T19:39:35.971Z,26.67
2018-05-13T19:42:03.172Z,23.63
2018-05-13T19:44:29.584Z,21.27
2018-05-13T19:46:56.309Z,24.53
2018-05-13T19:49:22.758Z,20.50
2018-05-13T19:51:49.384Z,22.47
2018-05-13T19:54:15.825Z,24.90
2018-05-13T19:56:42.422Z,24.47
2018-05-13T19:59:08.829Z,19.90
2018-05-13T20:01:35.409Z,21.90
2018-05-13T20:04:02.661Z,18.97
2018-05-13T20:06:29.913Z,19.53
2018-05-13T20:08:57.255Z,18.93
2018-05-13T20:11:24.491Z,17.20
2018-05-13T20:13:51.007Z,18.77
2018-05-13T20:16:17.516Z,19.10
2018-05-13T20:18:44.015Z,20.97
2018-05-13T20:21:10.563Z,22.83
2018-05-13T20:23:37.074Z,22.40
2018-05-13T20:26:04.314Z,24.83
2018-05-13T20:28:30.849Z,24.87
2018-05-13T20:30:57.312Z,23.27
2018-05-13T20:33:24.007Z,26.03
2018-05-13T20:35:50.451Z,23.57
2018-05-13T20:38:17.024Z,25.10
2018-05-13T20:40:43.532Z,22.43
2018-05-13T20:43:10.742Z,28.57
2018-05-13T20:45:37.326Z,25.83
2018-05-13T20:48:04.512Z,24.67
2018-05-13T20:50:30.970Z,23.87
2018-05-13T20:52:57.488Z,23.53
2018-05-13T20:55:23.976Z,23.47
2018-05-13T20:57:51.171Z,27.83
2018-05-13T21:00:17.741Z,22.83
2018-05-13T21:02:44.210Z,28.20
2018-05-13T21:05:10.706Z,25.07
2018-05-13T21:07:37.185Z,24.00
2018-05-13T21:10:03.724Z,22.40
2018-05-13T21:12:30.157Z,22.73
2018-05-13T21:14:56.591Z,24.10
2018-05-13T21:17:23.072Z,23.20
2018-05-13T21:19:49.588Z,24.17
2018-05-13T21:22:16.061Z,23.03
2018-05-13T21:24:43.221Z,24.23
2018-05-13T21:27:09.672Z,23.47
2018-05-13T21:29:36.084Z,24.37
2018-05-13T21:32:03.303Z,24.13
2018-05-13T21:34:29.792Z,24.23
2018-05-13T21:36:56.190Z,25.70
2018-05-13T21:39:23.368Z,27.17
2018-05-13T21:41:49.828Z,27.40
2018-05-13T21:44:16.255Z,24.40
2018-05-13T21:46:42.689Z,23.57
2018-05-13T21:49:09.111Z,22.17
2018-05-13T21:51:35.578Z,26.87
2018-05-13T21:54:02.010Z,23.50
2018-05-13T21:56:28.568Z,18.87
2018-05-13T21:58:55.856Z,15.37
2018-05-13T22:01:22.287Z,14.50
2018-05-13T22:03:50.575Z,18.00
2018-05-13T22:06:17.008Z,17.63
2018-05-13T22:08:43.563Z,18.80
2018-05-13T22:11:09.972Z,16.90
2018-05-13T22:13:36.452Z,21.73
2018-05-13T22:16:02.852Z,17.00
2018-05-13T22:18:29.408Z,16.70
2018-05-13T22:20:55.868Z,17.10
2018-05-13T22:23:23.013Z,19.67
2018-05-13T22:25:50.308Z,18.13
2018-05-13T22:28:17.441Z,20.30
2018-05-13T22:30:43.966Z,19.17
2018-05-13T22:33:10.381Z,17.30
2018-05-13T22:35:37.676Z,16.77
2018-05-13T22:38:04.092Z,19.40
2018-05-13T22:40:30.606Z,19.57
2018-05-13T22:42:57.945Z,19.60
2018-05-13T22:45:25.339Z,20.07
2018-05-13T22:47:51.748Z,20.03
2018-05-13T22:50:18.957Z,20.50
2018-05-13T22:52:45.422Z,20.13
2018-05-13T22:55:12.698Z,19.57
2018-05-13T22:57:39.109Z,23.50
2018-05-13T23:00:06.286Z,22.73
2018-05-13T23:02:32.705Z,19.60
2018-05-13T23:04:59.124Z,22.13
2018-05-13T23:07:26.317Z,18.93
2018-05-13T23:09:52.791Z,17.33
2018-05-13T23:12:19.266Z,17.77
2018-05-13T23:14:45.677Z,18.57
2018-05-13T23:17:12.848Z,14.17
2018-05-13T23:19:39.269Z,17.30
2018-05-13T23:22:05.712Z,16.70
2018-05-13T23:24:32.241Z,14.37
2018-05-13T23:26:58.684Z,15.10
2018-05-13T23:29:25.132Z,14.37
2018-05-13T23:31:51.550Z,16.30
2018-05-13T23:34:18.028Z,14.03
2018-05-13T23:36:44.437Z,13.93
2018-05-13T23:39:11.007Z,13.27
2018-05-13T23:41:37.439Z,16.60
2018-05-13T23:44:03.901Z,16.20
2018-05-13T23:46:30.300Z,10.23
2018-05-13T23:48:57.485Z,9.27
2018-05-13T23:51:23.988Z,7.70
2018-05-13T23:53:50.357Z,8.83
2018-05-13T23:56:16.896Z,8.73
2018-05-13T23:58:43.317Z,5.03
